sensor_id;sensor_type;location;lat;lon;timestamp;temperature;humidity
25550;DHT22;13444;50.562;7.262;2023-10-19T00:00:35;11.50;99.90
25550;DHT22;13444;50.562;7.262;2023-10-19T00:03:11;11.50;99.90
25550;DHT22;13444;50.562;7.262;2023-10-19T00:05:37;11.50;99.90
25550;DHT22;13444;50.562;7.262;2023-10-19T00:08:04;11.50;99.90
25550;DHT22;13444;50.562;7.262;2023-10-19T00:10:48;11.50;99.90
25550;DHT22;13444;50.562;7.262;2023-10-19T00:13:16;11.50;99.90
25550;DHT22;13444;50.562;7.262;2023-10-19T00:15:44;11.50;99.90
25550;DHT22;13444;50.562;7.262;2023-10-19T00:18:19;11.60;99.90
25550;DHT22;13444;50.562;7.262;2023-10-19T00:20:51;11.60;99.90
25550;DHT22;13444;50.562;7.262;2023-10-19T00:23:19;11.60;99.90
25550;DHT22;13444;50.562;7.262;2023-10-19T00:25:50;11.50;99.90
25550;DHT22;13444;50.562;7.262;2023-10-19T00:28:19;11.50;99.90
25550;DHT22;13444;50.562;7.262;2023-10-19T00:30:44;11.60;99.90
25550;DHT22;13444;50.562;7.262;2023-10-19T00:33:15;11.60;99.90
25550;DHT22;13444;50.562;7.262;2023-10-19T00:35:45;11.60;99.90
25550;DHT22;13444;50.562;7.262;2023-10-19T00:38:26;11.60;99.90
25550;DHT22;13444;50.562;7.262;2023-10-19T00:41:00;11.60;99.90
25550;DHT22;13444;50.562;7.262;2023-10-19T00:43:33;11.60;99.90
25550;DHT22;13444;50.562;7.262;2023-10-19T00:46:06;11.70;99.90
25550;DHT22;13444;50.562;7.262;2023-10-19T00:48:42;11.70;99.90
25550;DHT22;13444;50.562;7.262;2023-10-19T00:51:08;11.70;99.90
25550;DHT22;13444;50.562;7.262;2023-10-19T00:53:52;11.70;99.90
25550;DHT22;13444;50.562;7.262;2023-10-19T00:56:19;11.70;99.90
25550;DHT22;13444;50.562;7.262;2023-10-19T00:58:52;11.70;99.90
25550;DHT22;13444;50.562;7.262;2023-10-19T01:01:24;11.70;99.90
25550;DHT22;13444;50.562;7.262;2023-10-19T01:03:50;11.70;99.90
25550;DHT22;13444;50.562;7.262;2023-10-19T01:06:22;11.70;99.90
25550;DHT22;13444;50.562;7.262;2023-10-19T01:08:48;11.60;99.90
25550;DHT22;13444;50.562;7.262;2023-10-19T01:11:16;11.60;99.90
25550;DHT22;13444;50.562;7.262;2023-10-19T01:13:46;11.60;99.90
25550;DHT22;13444;50.562;7.262;2023-10-19T01:16:14;11.60;99.90
25550;DHT22;13444;50.562;7.262;2023-10-19T01:18:52;11.60;99.90
25550;DHT22;13444;50.562;7.262;2023-10-19T01:21:22;11.60;99.90
25550;DHT22;13444;50.562;7.262;2023-10-19T01:23:53;11.60;99.90
25550;DHT22;13444;50.562;7.262;2023-10-19T01:26:19;11.60;99.90
25550;DHT22;13444;50.562;7.262;2023-10-19T01:28:48;11.60;99.90
25550;DHT22;13444;50.562;7.262;2023-10-19T01:31:21;11.60;99.90
25550;DHT22;13444;50.562;7.262;2023-10-19T01:34:00;11.60;99.90
25550;DHT22;13444;50.562;7.262;2023-10-19T01:36:35;11.60;99.90
25550;DHT22;13444;50.562;7.262;2023-10-19T01:39:09;11.60;99.90
25550;DHT22;13444;50.562;7.262;2023-10-19T01:41:36;11.70;99.90
25550;DHT22;13444;50.562;7.262;2023-10-19T01:44:02;11.70;99.90
25550;DHT22;13444;50.562;7.262;2023-10-19T01:46:32;11.70;99.90
25550;DHT22;13444;50.562;7.262;2023-10-19T01:49:03;11.70;99.90
25550;DHT22;13444;50.562;7.262;2023-10-19T01:51:33;11.80;99.90
25550;DHT22;13444;50.562;7.262;2023-10-19T01:54:04;11.80;99.90
25550;DHT22;13444;50.562;7.262;2023-10-19T01:56:31;11.90;99.90
25550;DHT22;13444;50.562;7.262;2023-10-19T01:58:58;11.90;99.90
25550;DHT22;13444;50.562;7.262;2023-10-19T02:01:24;11.90;99.90
25550;DHT22;13444;50.562;7.262;2023-10-19T02:03:53;11.90;99.90
25550;DHT22;13444;50.562;7.262;2023-10-19T02:06:30;11.90;99.90
25550;DHT22;13444;50.562;7.262;2023-10-19T02:09:04;11.90;99.90
25550;DHT22;13444;50.562;7.262;2023-10-19T02:11:43;11.90;99.90
25550;DHT22;13444;50.562;7.262;2023-10-19T02:14:11;11.90;99.90
25550;DHT22;13444;50.562;7.262;2023-10-19T02:16:45;11.90;99.90
25550;DHT22;13444;50.562;7.262;2023-10-19T02:19:13;11.90;99.90
25550;DHT22;13444;50.562;7.262;2023-10-19T02:21:38;11.90;99.90
25550;DHT22;13444;50.562;7.262;2023-10-19T02:24:08;12.00;99.90
25550;DHT22;13444;50.562;7.262;2023-10-19T02:26:35;11.90;99.90
25550;DHT22;13444;50.562;7.262;2023-10-19T02:29:03;12.00;99.90
25550;DHT22;13444;50.562;7.262;2023-10-19T02:31:40;12.00;99.90
25550;DHT22;13444;50.562;7.262;2023-10-19T02:34:10;12.00;99.90
25550;DHT22;13444;50.562;7.262;2023-10-19T02:36:37;12.00;99.90
25550;DHT22;13444;50.562;7.262;2023-10-19T02:39:05;12.00;99.90
25550;DHT22;13444;50.562;7.262;2023-10-19T02:41:38;12.00;99.90
25550;DHT22;13444;50.562;7.262;2023-10-19T02:44:07;12.00;99.90
25550;DHT22;13444;50.562;7.262;2023-10-19T02:46:35;12.10;99.90
25550;DHT22;13444;50.562;7.262;2023-10-19T02:49:06;12.10;99.90
25550;DHT22;13444;50.562;7.262;2023-10-19T02:51:35;12.00;99.90
25550;DHT22;13444;50.562;7.262;2023-10-19T02:54:02;12.10;99.90
25550;DHT22;13444;50.562;7.262;2023-10-19T02:56:28;12.10;99.90
25550;DHT22;13444;50.562;7.262;2023-10-19T02:58:55;12.20;99.90
25550;DHT22;13444;50.562;7.262;2023-10-19T03:01:27;12.20;99.90
25550;DHT22;13444;50.562;7.262;2023-10-19T03:03:56;12.20;99.90
25550;DHT22;13444;50.562;7.262;2023-10-19T03:06:26;12.20;99.90
25550;DHT22;13444;50.562;7.262;2023-10-19T03:08:56;12.20;99.90
25550;DHT22;13444;50.562;7.262;2023-10-19T03:11:30;12.20;99.90
25550;DHT22;13444;50.562;7.262;2023-10-19T03:13:58;12.20;99.90
25550;DHT22;13444;50.562;7.262;2023-10-19T03:16:23;12.20;99.90
25550;DHT22;13444;50.562;7.262;2023-10-19T03:18:50;12.20;99.90
25550;DHT22;13444;50.562;7.262;2023-10-19T03:21:18;12.20;99.90
25550;DHT22;13444;50.562;7.262;2023-10-19T03:23:44;12.20;99.90
25550;DHT22;13444;50.562;7.262;2023-10-19T03:26:11;12.20;99.90
25550;DHT22;13444;50.562;7.262;2023-10-19T03:28:55;12.20;99.90
25550;DHT22;13444;50.562;7.262;2023-10-19T03:31:24;12.20;99.90
25550;DHT22;13444;50.562;7.262;2023-10-19T03:33:51;12.20;99.90
25550;DHT22;13444;50.562;7.262;2023-10-19T03:36:23;12.30;99.90
25550;DHT22;13444;50.562;7.262;2023-10-19T03:38:49;12.30;99.90
25550;DHT22;13444;50.562;7.262;2023-10-19T03:41:17;12.30;99.90
25550;DHT22;13444;50.562;7.262;2023-10-19T03:43:47;12.30;99.90
25550;DHT22;13444;50.562;7.262;2023-10-19T03:46:14;12.40;99.90
25550;DHT22;13444;50.562;7.262;2023-10-19T03:48:48;12.40;99.90
25550;DHT22;13444;50.562;7.262;2023-10-19T03:51:14;12.50;99.90
25550;DHT22;13444;50.562;7.262;2023-10-19T03:53:40;12.50;99.90
25550;DHT22;13444;50.562;7.262;2023-10-19T03:56:11;12.50;99.90
25550;DHT22;13444;50.562;7.262;2023-10-19T03:58:37;12.60;99.90
25550;DHT22;13444;50.562;7.262;2023-10-19T04:01:05;12.60;99.90
25550;DHT22;13444;50.562;7.262;2023-10-19T04:03:31;12.70;99.90
25550;DHT22;13444;50.562;7.262;2023-10-19T04:05:56;12.70;99.90
25550;DHT22;13444;50.562;7.262;2023-10-19T04:08:26;12.70;99.90
25550;DHT22;13444;50.562;7.262;2023-10-19T04:10:52;12.70;99.90
25550;DHT22;13444;50.562;7.262;2023-10-19T04:13:34;12.70;99.90
25550;DHT22;13444;50.562;7.262;2023-10-19T04:16:01;12.70;99.90
25550;DHT22;13444;50.562;7.262;2023-10-19T04:18:27;12.70;99.90
25550;DHT22;13444;50.562;7.262;2023-10-19T04:20:52;12.60;99.90
25550;DHT22;13444;50.562;7.262;2023-10-19T04:23:18;12.70;99.90
25550;DHT22;13444;50.562;7.262;2023-10-19T04:25:46;12.70;99.90
25550;DHT22;13444;50.562;7.262;2023-10-19T04:28:12;12.70;99.90
25550;DHT22;13444;50.562;7.262;2023-10-19T04:30:39;12.70;99.90
25550;DHT22;13444;50.562;7.262;2023-10-19T04:33:05;12.70;99.90
25550;DHT22;13444;50.562;7.262;2023-10-19T04:35:35;12.80;99.90
25550;DHT22;13444;50.562;7.262;2023-10-19T04:38:03;12.70;99.90
25550;DHT22;13444;50.562;7.262;2023-10-19T04:40:28;12.70;99.90
25550;DHT22;13444;50.562;7.262;2023-10-19T04:42:54;12.70;99.90
25550;DHT22;13444;50.562;7.262;2023-10-19T04:45:20;12.70;99.90
25550;DHT22;13444;50.562;7.262;2023-10-19T04:47:49;12.70;99.90
25550;DHT22;13444;50.562;7.262;2023-10-19T04:50:14;12.70;99.90
25550;DHT22;13444;50.562;7.262;2023-10-19T04:52:41;12.70;99.90
25550;DHT22;13444;50.562;7.262;2023-10-19T04:55:07;12.70;99.90
25550;DHT22;13444;50.562;7.262;2023-10-19T04:57:32;12.80;99.90
25550;DHT22;13444;50.562;7.262;2023-10-19T04:59:58;12.80;99.90
25550;DHT22;13444;50.562;7.262;2023-10-19T05:02:24;12.90;99.90
25550;DHT22;13444;50.562;7.262;2023-10-19T05:04:49;12.80;99.90
25550;DHT22;13444;50.562;7.262;2023-10-19T05:07:15;12.90;99.90
25550;DHT22;13444;50.562;7.262;2023-10-19T05:09:45;12.90;99.90
25550;DHT22;13444;50.562;7.262;2023-10-19T05:12:11;12.80;99.90
25550;DHT22;13444;50.562;7.262;2023-10-19T05:14:37;12.90;99.90
25550;DHT22;13444;50.562;7.262;2023-10-19T05:17:03;12.90;99.90
25550;DHT22;13444;50.562;7.262;2023-10-19T05:19:33;12.80;99.90
25550;DHT22;13444;50.562;7.262;2023-10-19T05:22:04;12.80;99.90
25550;DHT22;13444;50.562;7.262;2023-10-19T05:24:30;12.80;99.90
25550;DHT22;13444;50.562;7.262;2023-10-19T05:26:55;12.80;99.90
25550;DHT22;13444;50.562;7.262;2023-10-19T05:29:22;12.90;99.90
25550;DHT22;13444;50.562;7.262;2023-10-19T05:31:51;12.80;99.90
25550;DHT22;13444;50.562;7.262;2023-10-19T05:34:22;12.90;99.90
25550;DHT22;13444;50.562;7.262;2023-10-19T05:36:48;12.90;99.90
25550;DHT22;13444;50.562;7.262;2023-10-19T05:39:17;12.90;99.90
25550;DHT22;13444;50.562;7.262;2023-10-19T05:41:42;12.90;99.90
25550;DHT22;13444;50.562;7.262;2023-10-19T05:44:08;12.90;99.90
25550;DHT22;13444;50.562;7.262;2023-10-19T05:46:34;12.90;99.90
25550;DHT22;13444;50.562;7.262;2023-10-19T05:48:59;12.90;99.90
25550;DHT22;13444;50.562;7.262;2023-10-19T05:51:29;12.90;99.90
25550;DHT22;13444;50.562;7.262;2023-10-19T05:53:55;12.90;99.90
25550;DHT22;13444;50.562;7.262;2023-10-19T05:56:27;12.90;99.90
25550;DHT22;13444;50.562;7.262;2023-10-19T05:58:52;12.90;99.90
25550;DHT22;13444;50.562;7.262;2023-10-19T06:01:19;12.90;99.90
25550;DHT22;13444;50.562;7.262;2023-10-19T06:03:45;12.90;99.90
25550;DHT22;13444;50.562;7.262;2023-10-19T06:06:11;12.90;99.90
25550;DHT22;13444;50.562;7.262;2023-10-19T06:08:36;12.90;99.90
25550;DHT22;13444;50.562;7.262;2023-10-19T06:11:02;13.00;99.90
25550;DHT22;13444;50.562;7.262;2023-10-19T06:13:28;13.00;99.90
25550;DHT22;13444;50.562;7.262;2023-10-19T06:15:54;13.10;99.90
25550;DHT22;13444;50.562;7.262;2023-10-19T06:18:20;13.10;99.90
25550;DHT22;13444;50.562;7.262;2023-10-19T06:20:46;13.10;99.90
25550;DHT22;13444;50.562;7.262;2023-10-19T06:23:12;13.20;99.90
25550;DHT22;13444;50.562;7.262;2023-10-19T06:25:38;13.20;99.90
25550;DHT22;13444;50.562;7.262;2023-10-19T06:28:04;13.20;99.90
25550;DHT22;13444;50.562;7.262;2023-10-19T06:30:30;13.20;99.90
25550;DHT22;13444;50.562;7.262;2023-10-19T06:33:00;13.30;99.90
25550;DHT22;13444;50.562;7.262;2023-10-19T06:35:33;13.30;99.90
25550;DHT22;13444;50.562;7.262;2023-10-19T06:38:00;13.30;99.90
25550;DHT22;13444;50.562;7.262;2023-10-19T06:40:26;13.30;99.90
25550;DHT22;13444;50.562;7.262;2023-10-19T06:42:58;13.30;99.90
25550;DHT22;13444;50.562;7.262;2023-10-19T06:45:24;13.40;99.90
25550;DHT22;13444;50.562;7.262;2023-10-19T06:47:55;13.40;99.90
25550;DHT22;13444;50.562;7.262;2023-10-19T06:50:22;13.30;99.90
25550;DHT22;13444;50.562;7.262;2023-10-19T06:52:48;13.40;99.90
25550;DHT22;13444;50.562;7.262;2023-10-19T06:55:16;13.40;99.90
25550;DHT22;13444;50.562;7.262;2023-10-19T06:57:44;13.40;99.90
25550;DHT22;13444;50.562;7.262;2023-10-19T07:00:11;13.40;99.90
25550;DHT22;13444;50.562;7.262;2023-10-19T07:02:42;13.40;99.90
25550;DHT22;13444;50.562;7.262;2023-10-19T07:05:09;13.50;99.90
25550;DHT22;13444;50.562;7.262;2023-10-19T07:07:37;13.50;99.90
25550;DHT22;13444;50.562;7.262;2023-10-19T07:10:06;13.50;99.90
25550;DHT22;13444;50.562;7.262;2023-10-19T07:12:31;13.50;99.90
25550;DHT22;13444;50.562;7.262;2023-10-19T07:14:58;13.50;99.90
25550;DHT22;13444;50.562;7.262;2023-10-19T07:17:26;13.50;99.90
25550;DHT22;13444;50.562;7.262;2023-10-19T07:19:52;13.50;99.90
25550;DHT22;13444;50.562;7.262;2023-10-19T07:22:18;13.60;99.90
25550;DHT22;13444;50.562;7.262;2023-10-19T07:24:48;13.60;99.90
25550;DHT22;13444;50.562;7.262;2023-10-19T07:27:13;13.70;99.90
25550;DHT22;13444;50.562;7.262;2023-10-19T07:29:44;13.70;99.90
25550;DHT22;13444;50.562;7.262;2023-10-19T07:32:09;13.70;99.90
25550;DHT22;13444;50.562;7.262;2023-10-19T07:34:38;13.70;99.90
25550;DHT22;13444;50.562;7.262;2023-10-19T07:37:04;13.70;99.90
25550;DHT22;13444;50.562;7.262;2023-10-19T07:39:29;13.70;99.90
25550;DHT22;13444;50.562;7.262;2023-10-19T07:41:58;13.80;99.90
25550;DHT22;13444;50.562;7.262;2023-10-19T07:44:24;13.90;99.90
25550;DHT22;13444;50.562;7.262;2023-10-19T07:46:49;13.90;99.90
25550;DHT22;13444;50.562;7.262;2023-10-19T07:49:15;14.00;99.90
25550;DHT22;13444;50.562;7.262;2023-10-19T07:51:47;14.10;99.90
25550;DHT22;13444;50.562;7.262;2023-10-19T07:54:13;14.20;99.90
25550;DHT22;13444;50.562;7.262;2023-10-19T07:56:39;14.30;99.90
25550;DHT22;13444;50.562;7.262;2023-10-19T07:59:05;14.30;99.90
25550;DHT22;13444;50.562;7.262;2023-10-19T08:01:32;14.30;99.90
25550;DHT22;13444;50.562;7.262;2023-10-19T08:03:58;14.40;99.90
25550;DHT22;13444;50.562;7.262;2023-10-19T08:06:23;14.40;99.90
25550;DHT22;13444;50.562;7.262;2023-10-19T08:08:49;14.40;99.90
25550;DHT22;13444;50.562;7.262;2023-10-19T08:11:15;14.40;99.90
25550;DHT22;13444;50.562;7.262;2023-10-19T08:13:42;14.70;99.90
25550;DHT22;13444;50.562;7.262;2023-10-19T08:16:08;15.10;99.90
25550;DHT22;13444;50.562;7.262;2023-10-19T08:18:34;15.60;99.90
25550;DHT22;13444;50.562;7.262;2023-10-19T08:21:01;16.10;99.90
25550;DHT22;13444;50.562;7.262;2023-10-19T08:23:27;16.30;99.90
25550;DHT22;13444;50.562;7.262;2023-10-19T08:25:54;16.50;99.90
25550;DHT22;13444;50.562;7.262;2023-10-19T08:28:20;16.50;99.90
25550;DHT22;13444;50.562;7.262;2023-10-19T08:30:46;16.50;99.90
25550;DHT22;13444;50.562;7.262;2023-10-19T08:33:22;16.40;99.90
25550;DHT22;13444;50.562;7.262;2023-10-19T08:35:49;16.30;99.90
25550;DHT22;13444;50.562;7.262;2023-10-19T08:38:14;16.20;99.90
25550;DHT22;13444;50.562;7.262;2023-10-19T08:40:40;16.00;99.90
25550;DHT22;13444;50.562;7.262;2023-10-19T08:43:06;15.90;99.90
25550;DHT22;13444;50.562;7.262;2023-10-19T08:45:34;15.90;99.90
25550;DHT22;13444;50.562;7.262;2023-10-19T08:48:01;16.00;99.90
25550;DHT22;13444;50.562;7.262;2023-10-19T08:50:29;16.20;99.90
25550;DHT22;13444;50.562;7.262;2023-10-19T08:52:57;16.50;99.90
25550;DHT22;13444;50.562;7.262;2023-10-19T08:55:22;16.80;99.90
25550;DHT22;13444;50.562;7.262;2023-10-19T08:57:49;17.00;99.90
25550;DHT22;13444;50.562;7.262;2023-10-19T09:00:16;17.00;99.90
25550;DHT22;13444;50.562;7.262;2023-10-19T09:02:45;17.20;99.90
25550;DHT22;13444;50.562;7.262;2023-10-19T09:05:11;17.40;99.90
25550;DHT22;13444;50.562;7.262;2023-10-19T09:07:46;17.50;99.90
25550;DHT22;13444;50.562;7.262;2023-10-19T09:10:16;17.80;99.90
25550;DHT22;13444;50.562;7.262;2023-10-19T09:12:41;18.10;99.90
25550;DHT22;13444;50.562;7.262;2023-10-19T09:15:21;18.40;99.90
25550;DHT22;13444;50.562;7.262;2023-10-19T09:17:47;18.60;99.90
25550;DHT22;13444;50.562;7.262;2023-10-19T09:20:14;18.90;99.90
25550;DHT22;13444;50.562;7.262;2023-10-19T09:22:44;18.90;99.90
25550;DHT22;13444;50.562;7.262;2023-10-19T09:25:09;19.00;99.90
25550;DHT22;13444;50.562;7.262;2023-10-19T09:27:35;19.00;99.90
25550;DHT22;13444;50.562;7.262;2023-10-19T09:30:02;19.10;99.90
25550;DHT22;13444;50.562;7.262;2023-10-19T09:32:29;19.20;99.90
25550;DHT22;13444;50.562;7.262;2023-10-19T09:34:55;19.20;99.90
25550;DHT22;13444;50.562;7.262;2023-10-19T09:37:21;18.80;99.90
25550;DHT22;13444;50.562;7.262;2023-10-19T09:39:47;18.60;99.90
25550;DHT22;13444;50.562;7.262;2023-10-19T09:42:13;18.50;99.90
25550;DHT22;13444;50.562;7.262;2023-10-19T09:44:43;18.40;99.90
25550;DHT22;13444;50.562;7.262;2023-10-19T09:47:11;18.10;99.90
25550;DHT22;13444;50.562;7.262;2023-10-19T09:49:41;18.00;99.90
25550;DHT22;13444;50.562;7.262;2023-10-19T09:52:11;17.80;99.90
25550;DHT22;13444;50.562;7.262;2023-10-19T09:54:50;17.60;99.90
25550;DHT22;13444;50.562;7.262;2023-10-19T09:57:24;17.60;99.90
25550;DHT22;13444;50.562;7.262;2023-10-19T09:59:58;17.60;99.90
25550;DHT22;13444;50.562;7.262;2023-10-19T10:02:24;17.70;99.90
25550;DHT22;13444;50.562;7.262;2023-10-19T10:04:52;17.80;99.90
25550;DHT22;13444;50.562;7.262;2023-10-19T10:07:18;18.10;99.90
25550;DHT22;13444;50.562;7.262;2023-10-19T10:09:44;18.30;99.90
25550;DHT22;13444;50.562;7.262;2023-10-19T10:15:00;18.60;99.90
25550;DHT22;13444;50.562;7.262;2023-10-19T10:17:34;18.50;99.90
25550;DHT22;13444;50.562;7.262;2023-10-19T10:22:42;18.50;99.90
25550;DHT22;13444;50.562;7.262;2023-10-19T10:25:08;18.50;99.90
25550;DHT22;13444;50.562;7.262;2023-10-19T10:27:51;18.50;99.90
25550;DHT22;13444;50.562;7.262;2023-10-19T10:30:17;18.50;99.90
25550;DHT22;13444;50.562;7.262;2023-10-19T10:32:47;18.50;99.90
25550;DHT22;13444;50.562;7.262;2023-10-19T10:38:10;18.30;99.90
25550;DHT22;13444;50.562;7.262;2023-10-19T10:40:43;18.20;99.90
25550;DHT22;13444;50.562;7.262;2023-10-19T10:43:08;18.20;99.90
25550;DHT22;13444;50.562;7.262;2023-10-19T10:45:34;18.10;99.90
25550;DHT22;13444;50.562;7.262;2023-10-19T10:47:59;18.10;99.90
25550;DHT22;13444;50.562;7.262;2023-10-19T10:50:26;18.00;99.90
25550;DHT22;13444;50.562;7.262;2023-10-19T10:52:54;18.00;99.90
25550;DHT22;13444;50.562;7.262;2023-10-19T10:55:23;17.90;99.90
25550;DHT22;13444;50.562;7.262;2023-10-19T10:57:51;17.90;99.90
25550;DHT22;13444;50.562;7.262;2023-10-19T11:00:17;17.90;99.90
25550;DHT22;13444;50.562;7.262;2023-10-19T11:02:45;17.90;99.90
25550;DHT22;13444;50.562;7.262;2023-10-19T11:05:15;17.80;99.90
25550;DHT22;13444;50.562;7.262;2023-10-19T11:08:11;17.90;99.90
25550;DHT22;13444;50.562;7.262;2023-10-19T11:10:42;17.90;99.90
25550;DHT22;13444;50.562;7.262;2023-10-19T11:13:11;17.80;99.90
25550;DHT22;13444;50.562;7.262;2023-10-19T11:15:38;17.80;99.90
25550;DHT22;13444;50.562;7.262;2023-10-19T11:18:05;17.80;99.90
25550;DHT22;13444;50.562;7.262;2023-10-19T11:20:33;17.80;99.90
25550;DHT22;13444;50.562;7.262;2023-10-19T11:22:59;17.70;99.90
25550;DHT22;13444;50.562;7.262;2023-10-19T11:25:29;17.60;99.90
25550;DHT22;13444;50.562;7.262;2023-10-19T11:27:59;17.60;99.90
25550;DHT22;13444;50.562;7.262;2023-10-19T11:30:30;17.60;99.90
25550;DHT22;13444;50.562;7.262;2023-10-19T11:32:59;17.60;99.90
25550;DHT22;13444;50.562;7.262;2023-10-19T11:35:28;17.60;99.90
25550;DHT22;13444;50.562;7.262;2023-10-19T11:38:01;17.50;99.90
25550;DHT22;13444;50.562;7.262;2023-10-19T11:40:29;17.60;99.90
25550;DHT22;13444;50.562;7.262;2023-10-19T11:42:56;17.60;99.90
25550;DHT22;13444;50.562;7.262;2023-10-19T11:45:22;17.60;99.90
25550;DHT22;13444;50.562;7.262;2023-10-19T11:47:50;17.60;99.90
25550;DHT22;13444;50.562;7.262;2023-10-19T11:50:16;17.50;99.90
25550;DHT22;13444;50.562;7.262;2023-10-19T11:52:44;17.60;99.90
25550;DHT22;13444;50.562;7.262;2023-10-19T11:55:11;17.50;99.90
25550;DHT22;13444;50.562;7.262;2023-10-19T11:57:39;17.50;99.90
25550;DHT22;13444;50.562;7.262;2023-10-19T12:00:06;17.50;99.90
25550;DHT22;13444;50.562;7.262;2023-10-19T12:02:37;17.50;99.90
25550;DHT22;13444;50.562;7.262;2023-10-19T12:05:05;17.50;99.90
25550;DHT22;13444;50.562;7.262;2023-10-19T12:07:36;17.40;99.90
25550;DHT22;13444;50.562;7.262;2023-10-19T12:10:01;17.40;99.90
25550;DHT22;13444;50.562;7.262;2023-10-19T12:12:28;17.40;99.90
25550;DHT22;13444;50.562;7.262;2023-10-19T12:14:54;17.40;99.90
25550;DHT22;13444;50.562;7.262;2023-10-19T12:17:20;17.40;99.90
25550;DHT22;13444;50.562;7.262;2023-10-19T12:19:47;17.40;99.90
25550;DHT22;13444;50.562;7.262;2023-10-19T12:22:13;17.40;99.90
25550;DHT22;13444;50.562;7.262;2023-10-19T12:24:38;17.40;99.90
25550;DHT22;13444;50.562;7.262;2023-10-19T12:27:04;17.50;99.90
25550;DHT22;13444;50.562;7.262;2023-10-19T12:29:30;17.50;99.90
25550;DHT22;13444;50.562;7.262;2023-10-19T12:31:57;17.50;99.90
25550;DHT22;13444;50.562;7.262;2023-10-19T12:34:22;17.50;99.90
25550;DHT22;13444;50.562;7.262;2023-10-19T12:36:48;17.50;99.90
25550;DHT22;13444;50.562;7.262;2023-10-19T12:39:15;17.50;99.90
25550;DHT22;13444;50.562;7.262;2023-10-19T12:41:59;17.50;99.90
25550;DHT22;13444;50.562;7.262;2023-10-19T12:44:26;17.50;99.90
25550;DHT22;13444;50.562;7.262;2023-10-19T12:46:54;17.60;99.90
25550;DHT22;13444;50.562;7.262;2023-10-19T12:49:19;17.60;99.90
25550;DHT22;13444;50.562;7.262;2023-10-19T12:51:51;17.60;99.90
25550;DHT22;13444;50.562;7.262;2023-10-19T12:54:17;17.60;99.90
25550;DHT22;13444;50.562;7.262;2023-10-19T12:56:43;17.60;99.90
25550;DHT22;13444;50.562;7.262;2023-10-19T12:59:09;17.60;99.90
25550;DHT22;13444;50.562;7.262;2023-10-19T13:01:35;17.60;99.90
25550;DHT22;13444;50.562;7.262;2023-10-19T13:04:01;17.50;99.90
25550;DHT22;13444;50.562;7.262;2023-10-19T13:06:31;17.50;99.90
25550;DHT22;13444;50.562;7.262;2023-10-19T13:08:58;17.50;99.90
25550;DHT22;13444;50.562;7.262;2023-10-19T13:11:24;17.50;99.90
25550;DHT22;13444;50.562;7.262;2023-10-19T13:13:49;17.40;99.90
25550;DHT22;13444;50.562;7.262;2023-10-19T13:16:15;17.40;99.90
25550;DHT22;13444;50.562;7.262;2023-10-19T13:18:41;17.40;99.90
25550;DHT22;13444;50.562;7.262;2023-10-19T13:21:07;17.50;99.90
25550;DHT22;13444;50.562;7.262;2023-10-19T13:23:36;17.40;99.90
25550;DHT22;13444;50.562;7.262;2023-10-19T13:26:02;17.50;99.90
25550;DHT22;13444;50.562;7.262;2023-10-19T13:28:40;17.50;99.90
25550;DHT22;13444;50.562;7.262;2023-10-19T13:31:05;17.40;99.90
25550;DHT22;13444;50.562;7.262;2023-10-19T13:33:34;17.30;99.90
25550;DHT22;13444;50.562;7.262;2023-10-19T13:36:00;17.30;99.90
25550;DHT22;13444;50.562;7.262;2023-10-19T13:38:26;17.20;99.90
25550;DHT22;13444;50.562;7.262;2023-10-19T13:40:51;17.10;99.90
25550;DHT22;13444;50.562;7.262;2023-10-19T13:43:18;17.10;99.90
25550;DHT22;13444;50.562;7.262;2023-10-19T13:45:45;17.10;99.90
25550;DHT22;13444;50.562;7.262;2023-10-19T13:48:12;17.10;99.90
25550;DHT22;13444;50.562;7.262;2023-10-19T13:50:45;17.00;99.90
25550;DHT22;13444;50.562;7.262;2023-10-19T13:53:14;17.00;99.90
25550;DHT22;13444;50.562;7.262;2023-10-19T13:55:40;17.00;99.90
25550;DHT22;13444;50.562;7.262;2023-10-19T13:58:06;17.00;99.90
25550;DHT22;13444;50.562;7.262;2023-10-19T14:00:32;16.90;99.90
25550;DHT22;13444;50.562;7.262;2023-10-19T14:03:06;17.00;99.90
25550;DHT22;13444;50.562;7.262;2023-10-19T14:05:36;16.90;99.90
25550;DHT22;13444;50.562;7.262;2023-10-19T14:08:04;16.90;99.90
25550;DHT22;13444;50.562;7.262;2023-10-19T14:10:29;16.90;99.90
25550;DHT22;13444;50.562;7.262;2023-10-19T14:12:56;16.80;99.90
25550;DHT22;13444;50.562;7.262;2023-10-19T14:15:22;16.80;99.90
25550;DHT22;13444;50.562;7.262;2023-10-19T14:17:48;16.80;99.90
25550;DHT22;13444;50.562;7.262;2023-10-19T14:20:15;16.70;99.90
25550;DHT22;13444;50.562;7.262;2023-10-19T14:22:42;16.60;99.90
25550;DHT22;13444;50.562;7.262;2023-10-19T14:25:09;16.60;99.90
25550;DHT22;13444;50.562;7.262;2023-10-19T14:27:39;16.60;99.90
25550;DHT22;13444;50.562;7.262;2023-10-19T14:30:07;16.70;99.90
25550;DHT22;13444;50.562;7.262;2023-10-19T14:32:33;16.70;99.90
25550;DHT22;13444;50.562;7.262;2023-10-19T14:34:58;16.70;99.90
25550;DHT22;13444;50.562;7.262;2023-10-19T14:37:25;16.60;99.90
25550;DHT22;13444;50.562;7.262;2023-10-19T14:39:50;16.60;99.90
25550;DHT22;13444;50.562;7.262;2023-10-19T14:42:16;16.70;99.90
25550;DHT22;13444;50.562;7.262;2023-10-19T14:44:42;16.70;99.90
25550;DHT22;13444;50.562;7.262;2023-10-19T14:47:07;16.70;99.90
25550;DHT22;13444;50.562;7.262;2023-10-19T14:49:34;16.70;99.90
25550;DHT22;13444;50.562;7.262;2023-10-19T14:52:00;16.70;99.90
25550;DHT22;13444;50.562;7.262;2023-10-19T14:54:25;16.70;99.90
25550;DHT22;13444;50.562;7.262;2023-10-19T14:56:51;16.70;99.90
25550;DHT22;13444;50.562;7.262;2023-10-19T14:59:16;16.70;99.90
25550;DHT22;13444;50.562;7.262;2023-10-19T15:01:43;16.80;99.90
25550;DHT22;13444;50.562;7.262;2023-10-19T15:04:09;16.80;99.90
25550;DHT22;13444;50.562;7.262;2023-10-19T15:06:35;16.80;99.90
25550;DHT22;13444;50.562;7.262;2023-10-19T15:09:01;16.90;99.90
25550;DHT22;13444;50.562;7.262;2023-10-19T15:11:28;16.90;99.90
25550;DHT22;13444;50.562;7.262;2023-10-19T15:13:53;16.90;99.90
25550;DHT22;13444;50.562;7.262;2023-10-19T15:16:19;16.90;99.90
25550;DHT22;13444;50.562;7.262;2023-10-19T15:18:45;16.90;99.90
25550;DHT22;13444;50.562;7.262;2023-10-19T15:21:11;16.90;99.90
25550;DHT22;13444;50.562;7.262;2023-10-19T15:23:37;16.90;99.90
25550;DHT22;13444;50.562;7.262;2023-10-19T15:26:02;16.90;99.90
25550;DHT22;13444;50.562;7.262;2023-10-19T15:28:29;17.00;99.90
25550;DHT22;13444;50.562;7.262;2023-10-19T15:31:00;17.00;99.90
25550;DHT22;13444;50.562;7.262;2023-10-19T15:33:26;17.00;99.90
25550;DHT22;13444;50.562;7.262;2023-10-19T15:35:52;17.10;99.90
25550;DHT22;13444;50.562;7.262;2023-10-19T15:38:20;17.10;99.90
25550;DHT22;13444;50.562;7.262;2023-10-19T15:40:45;17.10;99.90
25550;DHT22;13444;50.562;7.262;2023-10-19T15:43:11;17.10;99.90